Airport details for: LRCV (Romania)

Metar

LRCV 172100Z 03005KT CAVOK 24/12 Q1017

General details

ICAO: LRCV
IATA: CRA
Name (city): Craiova
Major:
Country: Romania
vACC: vACC Romania
Description:

Craiova Airport

Scenery links:
FS9 scenery:
FSX/P3D scenery: Download
XP scenery:
Elevation: 626 ft.
Transition altitude: 3000 ft.
MSA: 8200 ft.
Latitude: 44.318056
Longitude: 23.888611
LRCV Charts
LRCV Notams
LRCV Online stations

Runways

Number Course Length Elevation Lat Lon ILS ILS freq ILS FAC GP
09 85° 8202ft / 2500 m 626ft 44.317936 23.872939 - - 3.0°
27 265° 8202ft / 2500 m 614ft 44.318353 23.904125 108.7 265° 3.0°